createdAt,value
2022-10-07T00:01:17.990Z,9.90
2022-10-07T00:03:46.447Z,9.90
2022-10-07T00:06:18.613Z,9.90
2022-10-07T00:08:48.902Z,9.90
2022-10-07T00:11:20.857Z,9.90
2022-10-07T00:13:52.633Z,9.90
2022-10-07T00:16:24.458Z,9.90
2022-10-07T00:18:54.525Z,9.90
2022-10-07T00:21:25.838Z,9.90
2022-10-07T00:23:54.525Z,10.00
2022-10-07T00:26:25.365Z,10.00
2022-10-07T00:28:53.867Z,10.00
2022-10-07T00:31:23.995Z,10.00
2022-10-07T00:33:53.366Z,10.00
2022-10-07T00:36:24.638Z,10.00
2022-10-07T00:38:56.017Z,10.00
2022-10-07T00:41:26.337Z,10.00
2022-10-07T00:43:55.414Z,10.00
2022-10-07T00:46:29.689Z,10.20
2022-10-07T00:49:01.925Z,10.20
2022-10-07T00:51:33.521Z,10.00
2022-10-07T00:54:04.896Z,10.00
2022-10-07T00:56:34.964Z,10.00
2022-10-07T00:59:03.616Z,10.00
2022-10-07T01:01:32.225Z,10.00
2022-10-07T01:04:00.812Z,10.00
2022-10-07T01:06:30.042Z,10.00
2022-10-07T01:08:59.875Z,10.00
2022-10-07T01:11:40.523Z,10.00
2022-10-07T01:14:16.606Z,9.90
2022-10-07T01:16:55.341Z,9.90
2022-10-07T01:19:41.961Z,9.90
2022-10-07T01:22:22.856Z,9.90
2022-10-07T01:25:04.156Z,9.90
2022-10-07T01:27:38.344Z,9.80
2022-10-07T01:30:09.318Z,9.80
2022-10-07T01:32:41.692Z,9.80
2022-10-07T01:35:18.158Z,9.80
2022-10-07T01:37:51.504Z,9.80
2022-10-07T01:40:23.540Z,9.80
2022-10-07T01:42:54.159Z,9.80
2022-10-07T01:45:24.560Z,9.80
2022-10-07T01:47:53.399Z,9.80
2022-10-07T01:50:24.918Z,9.80
2022-10-07T01:53:12.548Z,9.80
2022-10-07T01:55:52.754Z,9.80
2022-10-07T01:58:34.361Z,9.70
2022-10-07T02:01:13.245Z,9.80
2022-10-07T02:04:07.656Z,9.70
2022-10-07T02:06:44.218Z,9.70
2022-10-07T02:09:21.622Z,9.70
2022-10-07T02:11:58.268Z,9.70
2022-10-07T02:14:39.535Z,9.70
2022-10-07T02:17:14.218Z,9.70
2022-10-07T02:19:47.693Z,9.70
2022-10-07T02:22:19.304Z,9.60
2022-10-07T02:24:49.358Z,9.60
2022-10-07T02:27:24.515Z,9.60
2022-10-07T02:30:02.315Z,9.60
2022-10-07T02:32:36.526Z,9.70
2022-10-07T02:35:14.228Z,9.60
2022-10-07T02:37:45.011Z,9.70
2022-10-07T02:40:13.979Z,9.70
2022-10-07T02:42:53.017Z,9.70
2022-10-07T02:45:29.547Z,9.70
2022-10-07T02:48:01.554Z,9.70
2022-10-07T02:50:38.763Z,9.70
2022-10-07T02:53:08.189Z,9.70
2022-10-07T02:55:37.229Z,9.70
2022-10-07T02:58:09.739Z,9.70
2022-10-07T03:00:43.859Z,9.60
2022-10-07T03:03:12.546Z,9.60
2022-10-07T03:05:53.935Z,9.60
2022-10-07T03:08:23.353Z,9.60
2022-10-07T03:10:52.797Z,9.60
2022-10-07T03:13:21.316Z,9.80
2022-10-07T03:15:55.762Z,9.60
2022-10-07T03:18:28.494Z,9.60
2022-10-07T03:21:16.178Z,9.50
2022-10-07T03:23:45.159Z,9.50
2022-10-07T03:26:14.338Z,9.50
2022-10-07T03:28:43.875Z,9.50
2022-10-07T03:31:15.527Z,9.50
2022-10-07T03:33:49.050Z,9.50
2022-10-07T03:36:19.303Z,9.50
2022-10-07T03:38:49.050Z,9.50
2022-10-07T03:41:17.883Z,9.50
2022-10-07T03:43:46.884Z,9.50
2022-10-07T03:46:22.249Z,9.50
2022-10-07T03:48:52.322Z,9.50
2022-10-07T03:51:21.497Z,9.50
2022-10-07T03:53:50.040Z,9.50
2022-10-07T03:56:18.609Z,9.50
2022-10-07T03:58:47.168Z,9.60
2022-10-07T04:01:16.353Z,9.60
2022-10-07T04:03:50.921Z,9.60
2022-10-07T04:06:20.056Z,9.60
2022-10-07T04:08:52.861Z,9.70
2022-10-07T04:11:21.891Z,9.60
2022-10-07T04:13:52.884Z,9.60
2022-10-07T04:16:24.207Z,9.60
2022-10-07T04:18:57.411Z,9.60
2022-10-07T04:21:28.249Z,9.60
2022-10-07T04:23:56.711Z,9.60
2022-10-07T04:26:25.169Z,9.60
2022-10-07T04:28:53.585Z,9.60
2022-10-07T04:31:24.642Z,9.60
2022-10-07T04:34:02.448Z,9.60
2022-10-07T04:36:35.566Z,9.50
2022-10-07T04:39:07.304Z,9.50
2022-10-07T04:41:38.934Z,9.50
2022-10-07T04:44:12.652Z,9.50
2022-10-07T04:46:49.112Z,9.50
2022-10-07T04:49:20.709Z,9.50
2022-10-07T04:51:49.604Z,9.50
2022-10-07T04:54:18.228Z,9.50
2022-10-07T04:56:50.889Z,9.50
2022-10-07T04:59:24.146Z,9.50
2022-10-07T05:01:55.943Z,9.60
2022-10-07T05:04:26.678Z,9.50
2022-10-07T05:06:55.990Z,9.60
2022-10-07T05:09:25.991Z,9.50
2022-10-07T05:11:55.584Z,9.40
2022-10-07T05:14:25.074Z,9.50
2022-10-07T05:16:54.186Z,9.50
2022-10-07T05:19:27.673Z,9.60
2022-10-07T05:21:56.725Z,9.60
2022-10-07T05:24:27.445Z,9.60
2022-10-07T05:26:56.208Z,9.60
2022-10-07T05:29:24.993Z,9.50
2022-10-07T05:31:55.557Z,9.70
2022-10-07T05:34:28.566Z,9.60
2022-10-07T05:36:57.154Z,9.60
2022-10-07T05:39:25.664Z,9.60
2022-10-07T05:41:59.015Z,9.60
2022-10-07T05:44:32.961Z,9.60
2022-10-07T05:47:03.625Z,9.60
2022-10-07T05:49:35.965Z,9.60
2022-10-07T05:52:05.696Z,9.60
2022-10-07T05:54:35.113Z,9.60
2022-10-07T05:57:04.718Z,9.70
2022-10-07T05:59:33.991Z,9.70
2022-10-07T06:02:02.552Z,9.70
2022-10-07T06:04:31.260Z,9.80
2022-10-07T06:07:04.047Z,9.80
2022-10-07T06:09:50.254Z,9.90
2022-10-07T06:12:37.290Z,10.00
2022-10-07T06:15:11.814Z,10.00
2022-10-07T06:17:45.638Z,10.10
2022-10-07T06:20:17.170Z,10.20
2022-10-07T06:22:48.083Z,10.20
2022-10-07T06:25:18.656Z,10.30
2022-10-07T06:27:53.810Z,10.40
2022-10-07T06:30:23.489Z,10.40
2022-10-07T06:32:52.167Z,10.50
2022-10-07T06:35:20.707Z,10.50
2022-10-07T06:37:52.583Z,10.60
2022-10-07T06:40:20.984Z,10.70
2022-10-07T06:42:49.409Z,10.70
2022-10-07T06:45:20.475Z,10.80
2022-10-07T06:47:53.453Z,10.80
2022-10-07T06:50:23.673Z,10.90
2022-10-07T06:52:53.546Z,11.00
2022-10-07T06:55:22.563Z,11.00
2022-10-07T06:57:51.035Z,11.10
2022-10-07T07:00:21.280Z,11.20
2022-10-07T07:02:50.578Z,11.30
2022-10-07T07:05:19.255Z,11.30
2022-10-07T07:07:49.372Z,11.40
2022-10-07T07:10:19.962Z,11.50
2022-10-07T07:12:54.649Z,11.60
2022-10-07T07:15:23.429Z,11.60
2022-10-07T07:17:51.875Z,11.60
2022-10-07T07:20:21.492Z,11.60
2022-10-07T07:22:52.288Z,11.60
2022-10-07T07:25:22.502Z,11.70
2022-10-07T07:27:56.753Z,11.80
2022-10-07T07:30:26.422Z,11.90
2022-10-07T07:32:57.861Z,12.10
2022-10-07T07:35:27.906Z,12.40
2022-10-07T07:37:56.376Z,12.70
2022-10-07T07:40:27.280Z,13.10
2022-10-07T07:42:56.095Z,13.30
2022-10-07T07:45:25.352Z,13.50
2022-10-07T07:47:53.821Z,13.90
2022-10-07T07:50:27.061Z,14.20
2022-10-07T07:52:57.596Z,14.50
2022-10-07T07:55:27.989Z,14.90
2022-10-07T07:57:56.606Z,15.10
2022-10-07T08:00:25.444Z,15.40
2022-10-07T08:03:02.055Z,15.40
2022-10-07T08:05:30.946Z,15.40
2022-10-07T08:08:01.331Z,15.20
2022-10-07T08:10:31.625Z,15.00
2022-10-07T08:13:00.591Z,14.80
2022-10-07T08:15:29.215Z,14.70
2022-10-07T08:17:57.835Z,14.50
2022-10-07T08:20:26.425Z,14.40
2022-10-07T08:22:58.937Z,14.30
2022-10-07T08:25:29.592Z,14.20
2022-10-07T08:28:01.217Z,14.10
2022-10-07T08:30:30.088Z,14.00
2022-10-07T08:33:01.313Z,14.00
2022-10-07T08:35:30.033Z,14.10
2022-10-07T08:37:58.458Z,14.20
2022-10-07T08:40:26.954Z,14.30
2022-10-07T08:42:55.601Z,14.50
2022-10-07T08:45:31.796Z,14.50
2022-10-07T08:48:03.423Z,14.50
2022-10-07T08:50:43.292Z,14.50
2022-10-07T08:53:20.470Z,14.50
2022-10-07T08:55:53.821Z,14.50
2022-10-07T08:58:49.851Z,14.50
2022-10-07T09:01:33.982Z,14.50
2022-10-07T09:04:14.576Z,14.50
2022-10-07T09:06:46.688Z,14.60
2022-10-07T09:09:20.705Z,14.70
2022-10-07T09:11:51.081Z,14.80
2022-10-07T09:14:27.640Z,14.90
2022-10-07T09:17:02.694Z,15.00
2022-10-07T09:19:34.308Z,15.20
2022-10-07T09:22:08.406Z,15.00
2022-10-07T09:24:37.013Z,15.00
2022-10-07T09:27:14.203Z,15.00
2022-10-07T09:29:42.738Z,15.00
2022-10-07T09:32:14.888Z,14.90
2022-10-07T09:34:43.300Z,14.90
2022-10-07T09:37:16.498Z,15.00
2022-10-07T09:39:47.135Z,15.10
2022-10-07T09:42:36.491Z,15.40
2022-10-07T09:45:19.958Z,15.50
2022-10-07T09:47:54.155Z,15.60
2022-10-07T09:50:36.980Z,15.80
2022-10-07T09:53:07.488Z,16.00
2022-10-07T09:55:42.968Z,16.10
2022-10-07T09:58:19.980Z,16.20
2022-10-07T10:00:50.115Z,16.40
2022-10-07T10:03:20.302Z,16.50
2022-10-07T10:05:55.150Z,16.50
2022-10-07T10:08:26.800Z,16.70
2022-10-07T10:10:56.861Z,16.70
2022-10-07T10:13:32.189Z,16.70
2022-10-07T10:16:01.799Z,16.70
2022-10-07T10:18:36.032Z,16.80
2022-10-07T10:21:25.195Z,17.00
2022-10-07T10:23:54.805Z,16.80
2022-10-07T10:26:34.299Z,17.00
2022-10-07T10:29:18.177Z,16.90
2022-10-07T10:32:03.228Z,17.00
2022-10-07T10:34:42.375Z,17.10
2022-10-07T10:37:20.352Z,17.00
2022-10-07T10:40:00.288Z,17.00
2022-10-07T10:42:37.857Z,17.00
2022-10-07T10:45:15.621Z,16.90
2022-10-07T10:47:56.891Z,16.90
2022-10-07T10:50:32.020Z,17.00
2022-10-07T10:53:07.536Z,17.00
2022-10-07T10:56:00.299Z,17.00
2022-10-07T10:58:41.094Z,17.00
2022-10-07T11:01:17.759Z,17.10
2022-10-07T11:04:05.003Z,17.20
2022-10-07T11:06:38.583Z,17.30
2022-10-07T11:09:15.705Z,17.30
2022-10-07T11:11:45.429Z,17.40
2022-10-07T11:14:18.175Z,17.60
2022-10-07T11:16:49.483Z,17.50
2022-10-07T11:19:23.221Z,17.60
2022-10-07T11:21:54.524Z,17.80
2022-10-07T11:24:28.221Z,17.90
2022-10-07T11:27:00.573Z,18.00
2022-10-07T11:29:38.566Z,18.10
2022-10-07T11:32:12.140Z,18.20
2022-10-07T11:34:52.197Z,18.30
2022-10-07T11:37:30.371Z,18.40
2022-10-07T11:39:58.884Z,18.40
2022-10-07T11:42:29.832Z,18.50
2022-10-07T11:45:03.124Z,18.60
2022-10-07T11:47:36.263Z,18.70
2022-10-07T11:50:09.169Z,18.80
2022-10-07T11:52:44.794Z,18.90
2022-10-07T11:55:22.651Z,18.80
2022-10-07T11:57:55.585Z,18.80
2022-10-07T12:00:27.347Z,18.90
2022-10-07T12:02:56.239Z,18.90
2022-10-07T12:05:58.570Z,18.90
2022-10-07T12:08:35.125Z,19.00
2022-10-07T12:11:43.666Z,19.00
2022-10-07T12:14:41.005Z,19.00
2022-10-07T12:17:28.121Z,19.00
2022-10-07T12:20:34.501Z,18.90
2022-10-07T12:23:49.400Z,18.90
2022-10-07T12:26:52.624Z,18.80
2022-10-07T12:29:45.406Z,18.90
2022-10-07T12:33:00.839Z,19.00
2022-10-07T12:35:54.787Z,19.00
2022-10-07T12:38:28.651Z,19.10
2022-10-07T12:41:12.992Z,19.20
2022-10-07T12:43:56.295Z,19.20
2022-10-07T12:46:26.563Z,19.20
2022-10-07T12:48:59.599Z,19.40
2022-10-07T12:51:31.275Z,19.30
2022-10-07T12:54:01.410Z,19.30
2022-10-07T12:56:31.383Z,19.30
2022-10-07T12:59:44.444Z,19.20
2022-10-07T13:02:46.222Z,19.10
2022-10-07T13:06:03.815Z,19.00
2022-10-07T13:09:13.699Z,19.00
2022-10-07T13:12:07.673Z,18.90
2022-10-07T13:14:46.201Z,18.90
2022-10-07T13:17:26.127Z,18.90
2022-10-07T13:20:02.547Z,18.90
2022-10-07T13:22:31.832Z,19.00
2022-10-07T13:25:03.005Z,19.00
2022-10-07T13:27:32.909Z,19.00
2022-10-07T13:30:04.714Z,19.00
2022-10-07T13:32:34.828Z,19.00
2022-10-07T13:35:30.611Z,19.00
2022-10-07T13:37:59.108Z,19.00
2022-10-07T13:40:34.066Z,19.10
2022-10-07T13:43:04.783Z,19.10
2022-10-07T13:45:43.093Z,19.10
2022-10-07T13:48:16.977Z,19.00
2022-10-07T13:50:46.220Z,19.10
2022-10-07T13:53:22.268Z,19.00
2022-10-07T13:55:50.740Z,19.10
2022-10-07T13:58:20.133Z,19.10
2022-10-07T14:00:50.487Z,19.10
2022-10-07T14:03:19.639Z,19.10
2022-10-07T14:05:51.956Z,19.10
2022-10-07T14:08:22.318Z,19.00
2022-10-07T14:10:54.345Z,18.90
2022-10-07T14:13:23.319Z,19.00
2022-10-07T14:15:55.831Z,19.00
2022-10-07T14:18:25.119Z,19.00
2022-10-07T14:20:56.214Z,19.00
2022-10-07T14:23:28.486Z,18.90
2022-10-07T14:25:59.101Z,18.90
2022-10-07T14:28:32.223Z,18.80
2022-10-07T14:31:46.601Z,18.80
2022-10-07T14:34:34.572Z,18.70
2022-10-07T14:37:09.063Z,18.70
2022-10-07T14:39:38.820Z,18.60
2022-10-07T14:42:12.020Z,18.50
2022-10-07T14:44:43.795Z,18.50
2022-10-07T14:47:15.831Z,18.50
2022-10-07T14:49:44.580Z,18.40
2022-10-07T14:52:18.978Z,18.40
2022-10-07T14:54:47.756Z,18.40
2022-10-07T14:57:16.184Z,18.40
2022-10-07T14:59:45.418Z,18.40
2022-10-07T15:02:15.181Z,18.40
2022-10-07T15:04:45.511Z,18.30
2022-10-07T15:07:14.873Z,18.30
2022-10-07T15:09:44.432Z,18.20
2022-10-07T15:12:15.014Z,18.20
2022-10-07T15:14:43.900Z,18.10
2022-10-07T15:17:15.358Z,18.10
2022-10-07T15:19:43.830Z,18.00
2022-10-07T15:22:12.256Z,18.00
2022-10-07T15:24:40.872Z,18.00
2022-10-07T15:27:09.887Z,18.00
2022-10-07T15:29:39.284Z,18.00
2022-10-07T15:32:09.258Z,18.10
2022-10-07T15:34:39.023Z,18.00
2022-10-07T15:37:09.117Z,18.00
2022-10-07T15:39:39.785Z,18.00
2022-10-07T15:42:09.176Z,17.90
2022-10-07T15:44:37.584Z,17.90
2022-10-07T15:47:06.123Z,17.90
2022-10-07T15:49:36.076Z,17.80
2022-10-07T15:52:06.362Z,17.80
2022-10-07T15:54:35.501Z,17.80
2022-10-07T15:57:04.284Z,17.60
2022-10-07T15:59:32.764Z,17.60
2022-10-07T16:02:01.704Z,17.50
2022-10-07T16:04:30.299Z,17.50
2022-10-07T16:06:59.612Z,17.40
2022-10-07T16:09:29.467Z,17.50
2022-10-07T16:11:57.922Z,17.40
2022-10-07T16:14:26.404Z,17.30
2022-10-07T16:16:54.851Z,17.30
2022-10-07T16:19:23.265Z,17.20
2022-10-07T16:21:51.692Z,17.20
2022-10-07T16:24:21.768Z,17.30
2022-10-07T16:26:51.691Z,17.20
2022-10-07T16:29:39.838Z,17.00
2022-10-07T16:32:10.636Z,17.00
2022-10-07T16:34:41.868Z,16.90
2022-10-07T16:37:10.399Z,16.90
2022-10-07T16:39:38.884Z,16.80
2022-10-07T16:42:08.749Z,16.70
2022-10-07T16:44:37.285Z,16.70
2022-10-07T16:47:06.165Z,16.60
2022-10-07T16:49:36.373Z,16.60
2022-10-07T16:52:06.332Z,16.50
2022-10-07T16:54:35.462Z,16.40
2022-10-07T16:57:03.997Z,16.40
2022-10-07T16:59:33.774Z,16.50
2022-10-07T17:02:04.977Z,16.20
2022-10-07T17:04:33.474Z,16.10
2022-10-07T17:07:02.045Z,16.10
2022-10-07T17:09:30.507Z,16.00
2022-10-07T17:11:59.421Z,15.90
2022-10-07T17:14:31.417Z,15.90
2022-10-07T17:17:01.534Z,15.80
2022-10-07T17:19:30.083Z,15.80
2022-10-07T17:21:59.579Z,15.70
2022-10-07T17:24:28.257Z,15.60
2022-10-07T17:26:56.894Z,15.50
2022-10-07T17:29:26.231Z,15.50
2022-10-07T17:31:55.537Z,15.40
2022-10-07T17:34:25.340Z,15.40
2022-10-07T17:36:54.112Z,15.30
2022-10-07T17:39:22.831Z,15.20
2022-10-07T17:41:51.268Z,15.30
2022-10-07T17:44:21.389Z,15.10
2022-10-07T17:46:50.184Z,15.00
2022-10-07T17:49:18.755Z,15.00
2022-10-07T17:51:48.583Z,15.00
2022-10-07T17:54:17.182Z,14.90
2022-10-07T17:56:46.110Z,14.90
2022-10-07T17:59:14.681Z,15.00
2022-10-07T18:01:44.381Z,14.90
2022-10-07T18:04:15.111Z,14.80
2022-10-07T18:06:44.104Z,14.90
2022-10-07T18:09:18.600Z,14.80
2022-10-07T18:12:04.803Z,14.80
2022-10-07T18:14:53.814Z,14.80
2022-10-07T18:17:24.396Z,14.70
2022-10-07T18:19:53.130Z,14.70
2022-10-07T18:22:21.799Z,14.70
2022-10-07T18:24:52.229Z,14.70
2022-10-07T18:27:26.773Z,14.70
2022-10-07T18:29:55.904Z,14.70
2022-10-07T18:32:25.016Z,14.70
2022-10-07T18:34:53.521Z,14.70
2022-10-07T18:37:22.894Z,14.70
2022-10-07T18:39:52.704Z,14.70
2022-10-07T18:42:21.260Z,14.70
2022-10-07T18:44:50.543Z,14.70
2022-10-07T18:47:18.984Z,14.60
2022-10-07T18:49:47.416Z,14.70
2022-10-07T18:52:16.008Z,14.60
2022-10-07T18:54:44.401Z,14.60
2022-10-07T18:57:14.161Z,14.60
2022-10-07T18:59:42.563Z,14.60
2022-10-07T19:02:12.396Z,14.60
2022-10-07T19:04:41.568Z,14.50
2022-10-07T19:07:10.018Z,14.60
2022-10-07T19:09:38.437Z,14.60
2022-10-07T19:12:27.341Z,14.50
2022-10-07T19:14:56.216Z,14.50
2022-10-07T19:17:24.656Z,14.50
2022-10-07T19:19:53.148Z,14.40
2022-10-07T19:22:21.625Z,14.40
2022-10-07T19:25:07.454Z,14.40
2022-10-07T19:27:35.906Z,14.30
2022-10-07T19:30:06.525Z,14.30
2022-10-07T19:32:34.959Z,14.20
2022-10-07T19:35:03.345Z,14.20
2022-10-07T19:37:31.777Z,14.20
2022-10-07T19:40:00.254Z,14.10
2022-10-07T19:42:28.844Z,14.10
2022-10-07T19:44:57.210Z,14.10
2022-10-07T19:47:27.018Z,14.10
2022-10-07T19:49:55.418Z,14.00
2022-10-07T19:52:23.828Z,14.00
2022-10-07T19:54:52.369Z,14.00
2022-10-07T19:57:21.506Z,13.90
2022-10-07T19:59:49.983Z,13.90
2022-10-07T20:02:19.695Z,13.90
2022-10-07T20:04:49.527Z,13.90
2022-10-07T20:07:18.136Z,13.90
2022-10-07T20:09:46.532Z,13.80
2022-10-07T20:12:14.899Z,13.80
2022-10-07T20:14:43.867Z,13.80
2022-10-07T20:17:12.324Z,13.70
2022-10-07T20:19:40.752Z,13.70
2022-10-07T20:22:11.220Z,13.70
2022-10-07T20:24:39.878Z,13.70
2022-10-07T20:27:08.313Z,13.70
2022-10-07T20:29:56.719Z,13.70
2022-10-07T20:32:26.011Z,13.70
2022-10-07T20:34:55.075Z,13.70
2022-10-07T20:37:24.900Z,13.60
2022-10-07T20:40:11.087Z,13.60
2022-10-07T20:42:45.991Z,13.60
2022-10-07T20:45:15.432Z,13.60
2022-10-07T20:47:44.396Z,13.60
2022-10-07T20:50:12.947Z,13.50
2022-10-07T20:52:42.753Z,13.50
2022-10-07T20:55:13.914Z,13.50
2022-10-07T20:57:42.290Z,13.50
2022-10-07T21:00:16.833Z,13.40
2022-10-07T21:02:45.884Z,13.40
2022-10-07T21:05:14.752Z,13.40
2022-10-07T21:07:44.732Z,13.40
2022-10-07T21:10:13.204Z,13.40
2022-10-07T21:12:41.642Z,13.40
2022-10-07T21:15:10.803Z,13.40
2022-10-07T21:17:40.659Z,13.40
2022-10-07T21:20:09.742Z,13.40
2022-10-07T21:22:38.161Z,13.40
2022-10-07T21:25:11.974Z,13.40
2022-10-07T21:27:40.349Z,13.40
2022-10-07T21:30:10.353Z,13.30
2022-10-07T21:32:38.883Z,13.30
2022-10-07T21:35:08.080Z,13.30
2022-10-07T21:37:36.552Z,13.40
2022-10-07T21:40:05.183Z,13.30
2022-10-07T21:42:34.954Z,13.30
2022-10-07T21:45:03.442Z,13.30
2022-10-07T21:47:31.974Z,13.30
2022-10-07T21:50:00.495Z,13.30
2022-10-07T21:52:29.402Z,13.30
2022-10-07T21:54:57.819Z,13.30
2022-10-07T21:57:26.242Z,13.30
2022-10-07T21:59:55.997Z,13.20
2022-10-07T22:02:24.504Z,13.30
2022-10-07T22:04:52.933Z,13.20
2022-10-07T22:07:38.597Z,13.30
2022-10-07T22:10:08.218Z,13.30
2022-10-07T22:12:36.641Z,13.30
2022-10-07T22:15:08.174Z,13.30
2022-10-07T22:17:36.643Z,13.30
2022-10-07T22:20:05.615Z,13.40
2022-10-07T22:22:34.050Z,13.40
2022-10-07T22:25:02.750Z,13.50
2022-10-07T22:27:31.144Z,13.50
2022-10-07T22:29:59.493Z,13.50
2022-10-07T22:32:29.264Z,13.50
2022-10-07T22:35:14.996Z,13.50
2022-10-07T22:37:44.914Z,13.50
2022-10-07T22:40:13.432Z,13.60
2022-10-07T22:42:45.947Z,13.60
2022-10-07T22:45:14.887Z,13.60
2022-10-07T22:47:44.952Z,13.70
2022-10-07T22:50:15.936Z,13.70
2022-10-07T22:52:44.696Z,13.70
2022-10-07T22:55:13.354Z,13.70
2022-10-07T22:57:41.744Z,13.70
2022-10-07T23:00:11.543Z,13.80
2022-10-07T23:02:40.002Z,13.80
2022-10-07T23:05:10.786Z,13.80
2022-10-07T23:07:39.848Z,13.80
2022-10-07T23:10:15.783Z,13.80
2022-10-07T23:12:47.386Z,13.80
2022-10-07T23:15:19.591Z,13.90
2022-10-07T23:17:48.056Z,13.90
2022-10-07T23:20:19.127Z,13.90
2022-10-07T23:22:47.844Z,13.90
2022-10-07T23:25:16.479Z,13.90
2022-10-07T23:27:44.901Z,13.90
2022-10-07T23:30:13.860Z,13.90
2022-10-07T23:32:45.762Z,13.90
2022-10-07T23:35:14.420Z,13.90
2022-10-07T23:37:45.288Z,13.90
2022-10-07T23:40:13.752Z,13.90
2022-10-07T23:42:42.138Z,14.00
2022-10-07T23:45:13.335Z,14.00
2022-10-07T23:47:42.252Z,14.00
2022-10-07T23:50:13.096Z,14.00
2022-10-07T23:52:41.495Z,14.10
2022-10-07T23:55:12.763Z,14.10
2022-10-07T23:57:41.322Z,14.10
